sensor_id;sensor_type;location;lat;lon;timestamp;P1;durP1;ratioP1;P2;durP2;ratioP2
4812;SDS011;2420;51.202;8.698;2022-11-15T00:01:32;22.80;;;15.02;;
4812;SDS011;2420;51.202;8.698;2022-11-15T00:03:58;24.83;;;15.18;;
4812;SDS011;2420;51.202;8.698;2022-11-15T00:06:23;25.58;;;15.07;;
4812;SDS011;2420;51.202;8.698;2022-11-15T00:08:49;22.73;;;14.85;;
4812;SDS011;2420;51.202;8.698;2022-11-15T00:11:14;22.27;;;14.85;;
4812;SDS011;2420;51.202;8.698;2022-11-15T00:13:40;26.13;;;15.02;;
4812;SDS011;2420;51.202;8.698;2022-11-15T00:16:06;23.13;;;15.23;;
4812;SDS011;2420;51.202;8.698;2022-11-15T00:18:32;22.45;;;14.57;;
4812;SDS011;2420;51.202;8.698;2022-11-15T00:21:02;22.80;;;14.40;;
4812;SDS011;2420;51.202;8.698;2022-11-15T00:23:32;25.83;;;15.45;;
4812;SDS011;2420;51.202;8.698;2022-11-15T00:25:58;25.83;;;15.60;;
4812;SDS011;2420;51.202;8.698;2022-11-15T00:28:24;25.30;;;15.77;;
4812;SDS011;2420;51.202;8.698;2022-11-15T00:30:50;23.10;;;15.18;;
4812;SDS011;2420;51.202;8.698;2022-11-15T00:33:15;24.40;;;14.98;;
4812;SDS011;2420;51.202;8.698;2022-11-15T00:35:41;26.17;;;15.38;;
4812;SDS011;2420;51.202;8.698;2022-11-15T00:38:06;23.65;;;14.48;;
4812;SDS011;2420;51.202;8.698;2022-11-15T00:40:32;29.15;;;14.95;;
4812;SDS011;2420;51.202;8.698;2022-11-15T00:42:58;23.98;;;14.52;;
4812;SDS011;2420;51.202;8.698;2022-11-15T00:45:27;24.58;;;14.63;;
4812;SDS011;2420;51.202;8.698;2022-11-15T00:47:52;25.05;;;15.65;;
4812;SDS011;2420;51.202;8.698;2022-11-15T00:50:18;24.10;;;14.98;;
4812;SDS011;2420;51.202;8.698;2022-11-15T00:52:44;23.70;;;14.75;;
4812;SDS011;2420;51.202;8.698;2022-11-15T00:55:13;24.33;;;15.00;;
4812;SDS011;2420;51.202;8.698;2022-11-15T00:57:40;23.67;;;14.32;;
4812;SDS011;2420;51.202;8.698;2022-11-15T01:00:06;22.20;;;14.15;;
4812;SDS011;2420;51.202;8.698;2022-11-15T01:02:33;22.42;;;14.52;;
4812;SDS011;2420;51.202;8.698;2022-11-15T01:04:59;21.88;;;14.50;;
4812;SDS011;2420;51.202;8.698;2022-11-15T01:07:25;25.30;;;14.43;;
4812;SDS011;2420;51.202;8.698;2022-11-15T01:09:50;20.95;;;14.38;;
4812;SDS011;2420;51.202;8.698;2022-11-15T01:12:16;22.52;;;14.25;;
4812;SDS011;2420;51.202;8.698;2022-11-15T01:14:41;24.20;;;14.70;;
4812;SDS011;2420;51.202;8.698;2022-11-15T01:17:07;23.15;;;14.15;;
4812;SDS011;2420;51.202;8.698;2022-11-15T01:19:33;23.15;;;14.43;;
4812;SDS011;2420;51.202;8.698;2022-11-15T01:21:58;20.42;;;13.50;;
4812;SDS011;2420;51.202;8.698;2022-11-15T01:24:24;26.98;;;14.27;;
4812;SDS011;2420;51.202;8.698;2022-11-15T01:26:49;23.08;;;14.43;;
4812;SDS011;2420;51.202;8.698;2022-11-15T01:29:15;21.48;;;13.38;;
4812;SDS011;2420;51.202;8.698;2022-11-15T01:31:41;22.23;;;14.18;;
4812;SDS011;2420;51.202;8.698;2022-11-15T01:34:06;25.17;;;15.43;;
4812;SDS011;2420;51.202;8.698;2022-11-15T01:36:32;24.58;;;14.27;;
4812;SDS011;2420;51.202;8.698;2022-11-15T01:38:57;22.90;;;13.68;;
4812;SDS011;2420;51.202;8.698;2022-11-15T01:41:24;19.90;;;13.27;;
4812;SDS011;2420;51.202;8.698;2022-11-15T01:43:52;22.13;;;13.32;;
4812;SDS011;2420;51.202;8.698;2022-11-15T01:46:29;22.38;;;13.73;;
4812;SDS011;2420;51.202;8.698;2022-11-15T01:49:02;20.85;;;12.80;;
4812;SDS011;2420;51.202;8.698;2022-11-15T01:51:35;21.65;;;13.23;;
4812;SDS011;2420;51.202;8.698;2022-11-15T01:54:02;24.13;;;13.65;;
4812;SDS011;2420;51.202;8.698;2022-11-15T01:56:33;20.77;;;13.38;;
4812;SDS011;2420;51.202;8.698;2022-11-15T01:59:04;19.55;;;12.68;;
4812;SDS011;2420;51.202;8.698;2022-11-15T02:01:32;21.38;;;13.07;;
4812;SDS011;2420;51.202;8.698;2022-11-15T02:03:59;19.95;;;12.80;;
4812;SDS011;2420;51.202;8.698;2022-11-15T02:06:30;20.40;;;13.15;;
4812;SDS011;2420;51.202;8.698;2022-11-15T02:08:56;19.23;;;13.63;;
4812;SDS011;2420;51.202;8.698;2022-11-15T02:11:22;22.05;;;13.23;;
4812;SDS011;2420;51.202;8.698;2022-11-15T02:13:48;20.88;;;13.40;;
4812;SDS011;2420;51.202;8.698;2022-11-15T02:18:41;19.35;;;13.50;;
4812;SDS011;2420;51.202;8.698;2022-11-15T02:32:06;19.77;;;13.60;;
4812;SDS011;2420;51.202;8.698;2022-11-15T02:40:12;19.52;;;12.82;;
4812;SDS011;2420;51.202;8.698;2022-11-15T02:42:55;21.90;;;13.13;;
4812;SDS011;2420;51.202;8.698;2022-11-15T02:45:48;21.30;;;12.77;;
4812;SDS011;2420;51.202;8.698;2022-11-15T02:48:17;17.88;;;12.63;;
4812;SDS011;2420;51.202;8.698;2022-11-15T02:50:46;20.02;;;12.85;;
4812;SDS011;2420;51.202;8.698;2022-11-15T02:53:14;19.55;;;13.15;;
4812;SDS011;2420;51.202;8.698;2022-11-15T02:55:41;19.70;;;13.23;;
4812;SDS011;2420;51.202;8.698;2022-11-15T03:01:12;21.60;;;13.45;;
4812;SDS011;2420;51.202;8.698;2022-11-15T03:06:48;21.27;;;13.35;;
4812;SDS011;2420;51.202;8.698;2022-11-15T03:09:40;19.98;;;13.15;;
4812;SDS011;2420;51.202;8.698;2022-11-15T03:12:27;18.88;;;12.75;;
4812;SDS011;2420;51.202;8.698;2022-11-15T03:15:15;20.60;;;13.63;;
4812;SDS011;2420;51.202;8.698;2022-11-15T03:17:48;22.10;;;13.45;;
4812;SDS011;2420;51.202;8.698;2022-11-15T03:20:20;22.98;;;14.55;;
4812;SDS011;2420;51.202;8.698;2022-11-15T03:22:46;22.00;;;14.05;;
4812;SDS011;2420;51.202;8.698;2022-11-15T03:25:17;23.83;;;14.98;;
4812;SDS011;2420;51.202;8.698;2022-11-15T03:27:50;23.55;;;14.60;;
4812;SDS011;2420;51.202;8.698;2022-11-15T03:30:19;24.92;;;15.13;;
4812;SDS011;2420;51.202;8.698;2022-11-15T03:32:53;22.80;;;14.40;;
4812;SDS011;2420;51.202;8.698;2022-11-15T03:35:22;20.00;;;13.73;;
4812;SDS011;2420;51.202;8.698;2022-11-15T03:37:52;21.02;;;14.10;;
4812;SDS011;2420;51.202;8.698;2022-11-15T03:40:30;23.20;;;14.77;;
4812;SDS011;2420;51.202;8.698;2022-11-15T03:43:09;22.02;;;14.15;;
4812;SDS011;2420;51.202;8.698;2022-11-15T03:45:51;20.20;;;13.73;;
4812;SDS011;2420;51.202;8.698;2022-11-15T03:48:26;23.75;;;13.80;;
4812;SDS011;2420;51.202;8.698;2022-11-15T03:50:58;25.42;;;14.68;;
4812;SDS011;2420;51.202;8.698;2022-11-15T03:53:24;24.67;;;14.55;;
4812;SDS011;2420;51.202;8.698;2022-11-15T03:55:49;21.30;;;14.00;;
4812;SDS011;2420;51.202;8.698;2022-11-15T03:58:15;25.95;;;14.48;;
4812;SDS011;2420;51.202;8.698;2022-11-15T04:00:41;23.27;;;14.75;;
4812;SDS011;2420;51.202;8.698;2022-11-15T04:03:06;21.92;;;14.45;;
4812;SDS011;2420;51.202;8.698;2022-11-15T04:05:32;23.92;;;13.90;;
4812;SDS011;2420;51.202;8.698;2022-11-15T04:07:58;21.20;;;14.05;;
4812;SDS011;2420;51.202;8.698;2022-11-15T04:10:24;25.10;;;14.68;;
4812;SDS011;2420;51.202;8.698;2022-11-15T04:12:49;21.73;;;14.18;;
4812;SDS011;2420;51.202;8.698;2022-11-15T04:15:19;19.70;;;13.77;;
4812;SDS011;2420;51.202;8.698;2022-11-15T04:17:47;21.88;;;14.30;;
4812;SDS011;2420;51.202;8.698;2022-11-15T04:20:21;24.88;;;14.55;;
4812;SDS011;2420;51.202;8.698;2022-11-15T04:23:11;21.25;;;13.05;;
4812;SDS011;2420;51.202;8.698;2022-11-15T04:25:56;21.85;;;14.35;;
4812;SDS011;2420;51.202;8.698;2022-11-15T04:28:24;19.60;;;12.55;;
4812;SDS011;2420;51.202;8.698;2022-11-15T04:30:50;20.35;;;12.82;;
4812;SDS011;2420;51.202;8.698;2022-11-15T04:33:15;20.00;;;13.10;;
4812;SDS011;2420;51.202;8.698;2022-11-15T04:35:41;19.55;;;12.77;;
4812;SDS011;2420;51.202;8.698;2022-11-15T04:38:08;20.17;;;12.75;;
4812;SDS011;2420;51.202;8.698;2022-11-15T04:40:35;21.83;;;12.75;;
4812;SDS011;2420;51.202;8.698;2022-11-15T04:43:02;20.00;;;11.38;;
4812;SDS011;2420;51.202;8.698;2022-11-15T04:45:29;16.98;;;11.77;;
4812;SDS011;2420;51.202;8.698;2022-11-15T04:47:54;19.00;;;11.73;;
4812;SDS011;2420;51.202;8.698;2022-11-15T04:50:20;17.45;;;11.43;;
4812;SDS011;2420;51.202;8.698;2022-11-15T04:52:50;16.30;;;11.00;;
4812;SDS011;2420;51.202;8.698;2022-11-15T04:55:17;16.25;;;10.77;;
4812;SDS011;2420;51.202;8.698;2022-11-15T04:57:43;14.95;;;10.95;;
4812;SDS011;2420;51.202;8.698;2022-11-15T05:00:09;17.35;;;10.48;;
4812;SDS011;2420;51.202;8.698;2022-11-15T05:02:37;22.70;;;11.23;;
4812;SDS011;2420;51.202;8.698;2022-11-15T05:05:21;16.20;;;11.25;;
4812;SDS011;2420;51.202;8.698;2022-11-15T05:07:48;16.52;;;11.02;;
4812;SDS011;2420;51.202;8.698;2022-11-15T05:10:13;17.67;;;10.80;;
4812;SDS011;2420;51.202;8.698;2022-11-15T05:12:39;16.10;;;10.68;;
4812;SDS011;2420;51.202;8.698;2022-11-15T05:15:05;17.98;;;11.20;;
4812;SDS011;2420;51.202;8.698;2022-11-15T05:17:31;19.35;;;11.05;;
4812;SDS011;2420;51.202;8.698;2022-11-15T05:19:56;15.00;;;10.63;;
4812;SDS011;2420;51.202;8.698;2022-11-15T05:22:22;17.75;;;10.57;;
4812;SDS011;2420;51.202;8.698;2022-11-15T05:24:48;18.35;;;11.77;;
4812;SDS011;2420;51.202;8.698;2022-11-15T05:27:13;16.48;;;11.10;;
4812;SDS011;2420;51.202;8.698;2022-11-15T05:29:38;22.25;;;12.63;;
4812;SDS011;2420;51.202;8.698;2022-11-15T05:32:05;19.15;;;11.77;;
4812;SDS011;2420;51.202;8.698;2022-11-15T05:34:31;16.98;;;11.30;;
4812;SDS011;2420;51.202;8.698;2022-11-15T05:36:57;21.60;;;11.75;;
4812;SDS011;2420;51.202;8.698;2022-11-15T05:39:23;17.40;;;10.73;;
4812;SDS011;2420;51.202;8.698;2022-11-15T05:41:52;18.67;;;11.45;;
4812;SDS011;2420;51.202;8.698;2022-11-15T05:44:29;21.40;;;11.70;;
4812;SDS011;2420;51.202;8.698;2022-11-15T05:46:56;15.90;;;10.23;;
4812;SDS011;2420;51.202;8.698;2022-11-15T05:49:23;15.48;;;10.60;;
4812;SDS011;2420;51.202;8.698;2022-11-15T05:51:54;15.90;;;10.60;;
4812;SDS011;2420;51.202;8.698;2022-11-15T05:54:21;15.38;;;10.65;;
4812;SDS011;2420;51.202;8.698;2022-11-15T05:56:48;15.77;;;10.75;;
4812;SDS011;2420;51.202;8.698;2022-11-15T05:59:14;16.85;;;10.35;;
4812;SDS011;2420;51.202;8.698;2022-11-15T06:01:39;15.80;;;10.18;;
4812;SDS011;2420;51.202;8.698;2022-11-15T06:04:05;16.40;;;10.13;;
4812;SDS011;2420;51.202;8.698;2022-11-15T06:06:31;15.98;;;10.35;;
4812;SDS011;2420;51.202;8.698;2022-11-15T06:08:56;18.05;;;10.63;;
4812;SDS011;2420;51.202;8.698;2022-11-15T06:11:22;17.20;;;10.68;;
4812;SDS011;2420;51.202;8.698;2022-11-15T06:13:47;17.60;;;10.63;;
4812;SDS011;2420;51.202;8.698;2022-11-15T06:16:13;15.77;;;9.68;;
4812;SDS011;2420;51.202;8.698;2022-11-15T06:18:38;15.43;;;10.02;;
4812;SDS011;2420;51.202;8.698;2022-11-15T06:21:04;13.88;;;9.70;;
4812;SDS011;2420;51.202;8.698;2022-11-15T06:23:34;14.70;;;9.43;;
4812;SDS011;2420;51.202;8.698;2022-11-15T06:26:00;17.90;;;10.43;;
4812;SDS011;2420;51.202;8.698;2022-11-15T06:28:30;16.98;;;11.70;;
4812;SDS011;2420;51.202;8.698;2022-11-15T06:31:01;16.60;;;11.00;;
4812;SDS011;2420;51.202;8.698;2022-11-15T06:33:31;15.13;;;10.93;;
4812;SDS011;2420;51.202;8.698;2022-11-15T06:36:04;27.52;;;16.20;;
4812;SDS011;2420;51.202;8.698;2022-11-15T06:38:32;15.25;;;10.63;;
4812;SDS011;2420;51.202;8.698;2022-11-15T06:41:01;16.67;;;10.77;;
4812;SDS011;2420;51.202;8.698;2022-11-15T06:43:28;15.77;;;10.75;;
4812;SDS011;2420;51.202;8.698;2022-11-15T06:45:53;13.30;;;8.35;;
4812;SDS011;2420;51.202;8.698;2022-11-15T06:48:19;11.77;;;8.07;;
4812;SDS011;2420;51.202;8.698;2022-11-15T06:50:50;14.48;;;8.40;;
4812;SDS011;2420;51.202;8.698;2022-11-15T06:53:19;14.57;;;8.25;;
4812;SDS011;2420;51.202;8.698;2022-11-15T06:55:44;13.73;;;9.50;;
4812;SDS011;2420;51.202;8.698;2022-11-15T06:58:10;12.80;;;8.40;;
4812;SDS011;2420;51.202;8.698;2022-11-15T07:00:35;14.60;;;9.02;;
4812;SDS011;2420;51.202;8.698;2022-11-15T07:03:01;11.98;;;8.63;;
4812;SDS011;2420;51.202;8.698;2022-11-15T07:05:27;13.70;;;9.05;;
4812;SDS011;2420;51.202;8.698;2022-11-15T07:07:53;18.83;;;12.98;;
4812;SDS011;2420;51.202;8.698;2022-11-15T07:10:20;15.40;;;9.15;;
4812;SDS011;2420;51.202;8.698;2022-11-15T07:12:49;12.60;;;8.55;;
4812;SDS011;2420;51.202;8.698;2022-11-15T07:15:18;13.05;;;8.45;;
4812;SDS011;2420;51.202;8.698;2022-11-15T07:17:45;12.75;;;8.18;;
4812;SDS011;2420;51.202;8.698;2022-11-15T07:20:11;13.15;;;8.35;;
4812;SDS011;2420;51.202;8.698;2022-11-15T07:22:40;11.27;;;8.05;;
4812;SDS011;2420;51.202;8.698;2022-11-15T07:25:06;15.38;;;8.25;;
4812;SDS011;2420;51.202;8.698;2022-11-15T07:27:33;13.45;;;8.07;;
4812;SDS011;2420;51.202;8.698;2022-11-15T07:29:58;13.30;;;7.80;;
4812;SDS011;2420;51.202;8.698;2022-11-15T07:32:24;11.02;;;7.82;;
4812;SDS011;2420;51.202;8.698;2022-11-15T07:34:49;10.43;;;7.65;;
4812;SDS011;2420;51.202;8.698;2022-11-15T07:37:15;11.80;;;7.82;;
4812;SDS011;2420;51.202;8.698;2022-11-15T07:39:41;12.38;;;7.90;;
4812;SDS011;2420;51.202;8.698;2022-11-15T07:42:07;11.55;;;7.68;;
4812;SDS011;2420;51.202;8.698;2022-11-15T07:44:51;11.50;;;7.68;;
4812;SDS011;2420;51.202;8.698;2022-11-15T07:47:17;12.13;;;8.18;;
4812;SDS011;2420;51.202;8.698;2022-11-15T07:49:43;12.50;;;8.00;;
4812;SDS011;2420;51.202;8.698;2022-11-15T07:52:08;10.80;;;7.47;;
4812;SDS011;2420;51.202;8.698;2022-11-15T07:54:34;10.25;;;7.43;;
4812;SDS011;2420;51.202;8.698;2022-11-15T07:56:59;9.90;;;7.35;;
4812;SDS011;2420;51.202;8.698;2022-11-15T07:59:25;13.13;;;7.68;;
4812;SDS011;2420;51.202;8.698;2022-11-15T08:01:50;12.13;;;8.00;;
4812;SDS011;2420;51.202;8.698;2022-11-15T08:04:16;10.95;;;7.53;;
4812;SDS011;2420;51.202;8.698;2022-11-15T08:06:41;10.43;;;7.57;;
4812;SDS011;2420;51.202;8.698;2022-11-15T08:09:07;10.27;;;7.50;;
4812;SDS011;2420;51.202;8.698;2022-11-15T08:11:32;12.73;;;7.35;;
4812;SDS011;2420;51.202;8.698;2022-11-15T08:13:58;14.43;;;8.00;;
4812;SDS011;2420;51.202;8.698;2022-11-15T08:16:23;11.23;;;7.82;;
4812;SDS011;2420;51.202;8.698;2022-11-15T08:18:49;10.98;;;7.20;;
4812;SDS011;2420;51.202;8.698;2022-11-15T08:21:17;10.80;;;7.30;;
4812;SDS011;2420;51.202;8.698;2022-11-15T08:23:44;10.52;;;7.15;;
4812;SDS011;2420;51.202;8.698;2022-11-15T08:26:10;11.82;;;7.30;;
4812;SDS011;2420;51.202;8.698;2022-11-15T08:28:35;9.50;;;6.93;;
4812;SDS011;2420;51.202;8.698;2022-11-15T08:31:01;11.82;;;8.70;;
4812;SDS011;2420;51.202;8.698;2022-11-15T08:33:28;11.63;;;8.38;;
4812;SDS011;2420;51.202;8.698;2022-11-15T08:35:55;10.55;;;7.97;;
4812;SDS011;2420;51.202;8.698;2022-11-15T08:38:22;12.93;;;7.25;;
4812;SDS011;2420;51.202;8.698;2022-11-15T08:40:47;14.55;;;8.40;;
4812;SDS011;2420;51.202;8.698;2022-11-15T08:43:13;11.50;;;7.93;;
4812;SDS011;2420;51.202;8.698;2022-11-15T08:45:39;11.55;;;8.02;;
4812;SDS011;2420;51.202;8.698;2022-11-15T08:48:04;12.02;;;7.32;;
4812;SDS011;2420;51.202;8.698;2022-11-15T08:50:30;12.32;;;7.10;;
4812;SDS011;2420;51.202;8.698;2022-11-15T08:52:57;14.30;;;8.02;;
4812;SDS011;2420;51.202;8.698;2022-11-15T08:55:22;12.75;;;8.30;;
4812;SDS011;2420;51.202;8.698;2022-11-15T08:57:48;12.98;;;8.43;;
4812;SDS011;2420;51.202;8.698;2022-11-15T09:00:13;11.57;;;8.10;;
4812;SDS011;2420;51.202;8.698;2022-11-15T09:02:39;15.77;;;8.50;;
4812;SDS011;2420;51.202;8.698;2022-11-15T09:05:06;12.25;;;8.05;;
4812;SDS011;2420;51.202;8.698;2022-11-15T09:07:32;11.15;;;7.57;;
4812;SDS011;2420;51.202;8.698;2022-11-15T09:09:58;11.48;;;7.47;;
4812;SDS011;2420;51.202;8.698;2022-11-15T09:12:23;12.10;;;7.55;;
4812;SDS011;2420;51.202;8.698;2022-11-15T09:14:49;10.60;;;7.38;;
4812;SDS011;2420;51.202;8.698;2022-11-15T09:17:15;11.07;;;7.95;;
4812;SDS011;2420;51.202;8.698;2022-11-15T09:19:40;11.25;;;8.27;;
4812;SDS011;2420;51.202;8.698;2022-11-15T09:22:06;10.98;;;7.55;;
4812;SDS011;2420;51.202;8.698;2022-11-15T09:24:33;9.13;;;6.63;;
4812;SDS011;2420;51.202;8.698;2022-11-15T09:26:59;11.00;;;6.78;;
4812;SDS011;2420;51.202;8.698;2022-11-15T09:29:25;10.93;;;7.38;;
4812;SDS011;2420;51.202;8.698;2022-11-15T09:31:53;11.10;;;7.20;;
4812;SDS011;2420;51.202;8.698;2022-11-15T09:34:19;10.90;;;7.07;;
4812;SDS011;2420;51.202;8.698;2022-11-15T09:36:46;10.65;;;6.90;;
4812;SDS011;2420;51.202;8.698;2022-11-15T09:39:11;9.05;;;6.97;;
4812;SDS011;2420;51.202;8.698;2022-11-15T09:45:04;7.30;;;6.07;;
4812;SDS011;2420;51.202;8.698;2022-11-15T09:50:39;11.52;;;6.78;;
4812;SDS011;2420;51.202;8.698;2022-11-15T09:53:15;9.95;;;6.55;;
4812;SDS011;2420;51.202;8.698;2022-11-15T09:56:05;9.70;;;6.57;;
4812;SDS011;2420;51.202;8.698;2022-11-15T09:58:50;9.55;;;7.03;;
4812;SDS011;2420;51.202;8.698;2022-11-15T10:04:19;8.73;;;6.85;;
4812;SDS011;2420;51.202;8.698;2022-11-15T10:06:50;9.82;;;6.88;;
4812;SDS011;2420;51.202;8.698;2022-11-15T10:09:36;11.73;;;7.40;;
4812;SDS011;2420;51.202;8.698;2022-11-15T10:12:09;10.05;;;6.53;;
4812;SDS011;2420;51.202;8.698;2022-11-15T10:14:37;12.30;;;7.60;;
4812;SDS011;2420;51.202;8.698;2022-11-15T10:17:22;13.00;;;7.53;;
4812;SDS011;2420;51.202;8.698;2022-11-15T10:22:50;11.95;;;7.95;;
4812;SDS011;2420;51.202;8.698;2022-11-15T10:25:25;11.35;;;7.40;;
4812;SDS011;2420;51.202;8.698;2022-11-15T10:30:30;12.65;;;7.82;;
4812;SDS011;2420;51.202;8.698;2022-11-15T10:35:48;11.48;;;7.65;;
4812;SDS011;2420;51.202;8.698;2022-11-15T10:39:10;11.82;;;7.68;;
4812;SDS011;2420;51.202;8.698;2022-11-15T10:46:36;15.90;;;10.00;;
4812;SDS011;2420;51.202;8.698;2022-11-15T10:51:49;10.63;;;7.65;;
4812;SDS011;2420;51.202;8.698;2022-11-15T10:54:22;9.27;;;6.20;;
4812;SDS011;2420;51.202;8.698;2022-11-15T10:56:53;11.18;;;7.13;;
4812;SDS011;2420;51.202;8.698;2022-11-15T10:59:23;11.02;;;7.50;;
4812;SDS011;2420;51.202;8.698;2022-11-15T11:01:55;10.55;;;7.15;;
4812;SDS011;2420;51.202;8.698;2022-11-15T11:04:21;9.60;;;5.70;;
4812;SDS011;2420;51.202;8.698;2022-11-15T11:06:51;9.18;;;6.15;;
4812;SDS011;2420;51.202;8.698;2022-11-15T11:09:21;6.95;;;5.90;;
4812;SDS011;2420;51.202;8.698;2022-11-15T11:11:52;8.13;;;6.20;;
4812;SDS011;2420;51.202;8.698;2022-11-15T11:14:22;9.93;;;6.35;;
4812;SDS011;2420;51.202;8.698;2022-11-15T11:34:20;9.13;;;6.55;;
4812;SDS011;2420;51.202;8.698;2022-11-15T11:50:36;9.63;;;6.93;;
4812;SDS011;2420;51.202;8.698;2022-11-15T11:53:09;9.23;;;5.68;;
4812;SDS011;2420;51.202;8.698;2022-11-15T11:55:44;8.38;;;6.05;;
4812;SDS011;2420;51.202;8.698;2022-11-15T11:58:38;8.20;;;5.57;;
4812;SDS011;2420;51.202;8.698;2022-11-15T12:06:24;7.28;;;5.35;;
4812;SDS011;2420;51.202;8.698;2022-11-15T12:14:29;8.07;;;4.80;;
4812;SDS011;2420;51.202;8.698;2022-11-15T12:16:59;7.82;;;5.05;;
4812;SDS011;2420;51.202;8.698;2022-11-15T12:19:25;7.60;;;5.07;;
4812;SDS011;2420;51.202;8.698;2022-11-15T12:22:02;7.65;;;5.07;;
4812;SDS011;2420;51.202;8.698;2022-11-15T12:24:41;8.27;;;6.18;;
4812;SDS011;2420;51.202;8.698;2022-11-15T12:27:17;7.15;;;4.80;;
4812;SDS011;2420;51.202;8.698;2022-11-15T12:30:08;10.05;;;6.60;;
4812;SDS011;2420;51.202;8.698;2022-11-15T12:32:38;5.85;;;4.88;;
4812;SDS011;2420;51.202;8.698;2022-11-15T12:35:06;8.23;;;4.13;;
4812;SDS011;2420;51.202;8.698;2022-11-15T12:37:48;5.47;;;4.20;;
4812;SDS011;2420;51.202;8.698;2022-11-15T12:40:33;6.30;;;3.88;;
4812;SDS011;2420;51.202;8.698;2022-11-15T12:45:39;5.60;;;3.53;;
4812;SDS011;2420;51.202;8.698;2022-11-15T12:53:29;4.20;;;3.33;;
4812;SDS011;2420;51.202;8.698;2022-11-15T13:01:08;5.50;;;3.40;;
4812;SDS011;2420;51.202;8.698;2022-11-15T13:03:35;5.10;;;3.50;;
4812;SDS011;2420;51.202;8.698;2022-11-15T13:06:34;4.68;;;3.35;;
4812;SDS011;2420;51.202;8.698;2022-11-15T13:09:49;5.25;;;3.33;;
4812;SDS011;2420;51.202;8.698;2022-11-15T13:14:45;4.38;;;3.20;;
4812;SDS011;2420;51.202;8.698;2022-11-15T13:17:20;4.88;;;3.33;;
4812;SDS011;2420;51.202;8.698;2022-11-15T13:19:58;4.38;;;3.08;;
4812;SDS011;2420;51.202;8.698;2022-11-15T13:28:27;4.53;;;3.10;;
4812;SDS011;2420;51.202;8.698;2022-11-15T13:30:58;3.90;;;3.05;;
4812;SDS011;2420;51.202;8.698;2022-11-15T13:35:59;5.10;;;3.30;;
4812;SDS011;2420;51.202;8.698;2022-11-15T13:38:29;5.68;;;3.17;;
4812;SDS011;2420;51.202;8.698;2022-11-15T13:40:57;4.40;;;3.15;;
4812;SDS011;2420;51.202;8.698;2022-11-15T13:43:26;4.60;;;3.20;;
4812;SDS011;2420;51.202;8.698;2022-11-15T13:46:13;5.38;;;3.53;;
4812;SDS011;2420;51.202;8.698;2022-11-15T13:48:40;5.20;;;3.33;;
4812;SDS011;2420;51.202;8.698;2022-11-15T13:51:13;4.55;;;3.17;;
4812;SDS011;2420;51.202;8.698;2022-11-15T13:53:49;4.18;;;3.50;;
4812;SDS011;2420;51.202;8.698;2022-11-15T13:56:18;6.70;;;3.22;;
4812;SDS011;2420;51.202;8.698;2022-11-15T13:58:44;7.18;;;4.13;;
4812;SDS011;2420;51.202;8.698;2022-11-15T14:01:15;5.47;;;3.80;;
4812;SDS011;2420;51.202;8.698;2022-11-15T14:03:51;6.22;;;3.25;;
4812;SDS011;2420;51.202;8.698;2022-11-15T14:06:21;5.90;;;3.78;;
4812;SDS011;2420;51.202;8.698;2022-11-15T14:09:04;5.47;;;3.85;;
4812;SDS011;2420;51.202;8.698;2022-11-15T14:11:29;4.55;;;3.58;;
4812;SDS011;2420;51.202;8.698;2022-11-15T14:14:00;5.50;;;3.55;;
4812;SDS011;2420;51.202;8.698;2022-11-15T14:16:32;5.47;;;3.60;;
4812;SDS011;2420;51.202;8.698;2022-11-15T14:19:03;3.53;;;3.15;;
4812;SDS011;2420;51.202;8.698;2022-11-15T14:21:31;4.85;;;3.50;;
4812;SDS011;2420;51.202;8.698;2022-11-15T14:26:45;5.15;;;3.58;;
4812;SDS011;2420;51.202;8.698;2022-11-15T14:31:53;6.03;;;3.15;;
4812;SDS011;2420;51.202;8.698;2022-11-15T14:34:31;4.35;;;2.85;;
4812;SDS011;2420;51.202;8.698;2022-11-15T14:36:57;3.63;;;2.80;;
4812;SDS011;2420;51.202;8.698;2022-11-15T14:39:23;5.43;;;3.45;;
4812;SDS011;2420;51.202;8.698;2022-11-15T14:41:50;5.00;;;3.72;;
4812;SDS011;2420;51.202;8.698;2022-11-15T14:44:15;4.20;;;3.60;;
4812;SDS011;2420;51.202;8.698;2022-11-15T14:46:43;5.15;;;3.55;;
4812;SDS011;2420;51.202;8.698;2022-11-15T14:49:09;4.15;;;3.40;;
4812;SDS011;2420;51.202;8.698;2022-11-15T14:51:34;4.47;;;3.50;;
4812;SDS011;2420;51.202;8.698;2022-11-15T14:54:00;6.25;;;4.05;;
4812;SDS011;2420;51.202;8.698;2022-11-15T14:56:26;7.13;;;4.30;;
4812;SDS011;2420;51.202;8.698;2022-11-15T14:58:52;5.68;;;4.28;;
4812;SDS011;2420;51.202;8.698;2022-11-15T15:01:25;5.22;;;4.00;;
4812;SDS011;2420;51.202;8.698;2022-11-15T15:03:52;5.10;;;3.58;;
4812;SDS011;2420;51.202;8.698;2022-11-15T15:06:20;7.20;;;4.03;;
4812;SDS011;2420;51.202;8.698;2022-11-15T15:08:46;5.07;;;3.85;;
4812;SDS011;2420;51.202;8.698;2022-11-15T15:11:22;6.15;;;4.60;;
4812;SDS011;2420;51.202;8.698;2022-11-15T15:13:51;6.13;;;3.97;;
4812;SDS011;2420;51.202;8.698;2022-11-15T15:16:17;9.32;;;4.22;;
4812;SDS011;2420;51.202;8.698;2022-11-15T15:18:43;5.65;;;3.63;;
4812;SDS011;2420;51.202;8.698;2022-11-15T15:21:17;7.40;;;3.90;;
4812;SDS011;2420;51.202;8.698;2022-11-15T15:23:52;7.45;;;4.70;;
4812;SDS011;2420;51.202;8.698;2022-11-15T15:26:21;8.38;;;5.50;;
4812;SDS011;2420;51.202;8.698;2022-11-15T15:28:47;6.70;;;4.53;;
4812;SDS011;2420;51.202;8.698;2022-11-15T15:31:16;8.55;;;5.40;;
4812;SDS011;2420;51.202;8.698;2022-11-15T15:33:43;11.77;;;6.55;;
4812;SDS011;2420;51.202;8.698;2022-11-15T15:36:12;7.40;;;4.97;;
4812;SDS011;2420;51.202;8.698;2022-11-15T15:38:41;5.50;;;4.38;;
4812;SDS011;2420;51.202;8.698;2022-11-15T15:41:10;5.82;;;4.05;;
4812;SDS011;2420;51.202;8.698;2022-11-15T15:43:36;7.25;;;4.80;;
4812;SDS011;2420;51.202;8.698;2022-11-15T15:46:02;7.90;;;4.63;;
4812;SDS011;2420;51.202;8.698;2022-11-15T15:48:27;7.30;;;4.60;;
4812;SDS011;2420;51.202;8.698;2022-11-15T15:50:53;7.15;;;4.47;;
4812;SDS011;2420;51.202;8.698;2022-11-15T15:53:18;5.57;;;4.30;;
4812;SDS011;2420;51.202;8.698;2022-11-15T15:55:44;5.97;;;4.65;;
4812;SDS011;2420;51.202;8.698;2022-11-15T15:58:10;7.30;;;4.50;;
4812;SDS011;2420;51.202;8.698;2022-11-15T16:00:35;20.58;;;17.13;;
4812;SDS011;2420;51.202;8.698;2022-11-15T16:03:01;6.05;;;4.72;;
4812;SDS011;2420;51.202;8.698;2022-11-15T16:05:27;7.18;;;5.35;;
4812;SDS011;2420;51.202;8.698;2022-11-15T16:07:52;6.47;;;4.82;;
4812;SDS011;2420;51.202;8.698;2022-11-15T16:10:22;6.50;;;4.80;;
4812;SDS011;2420;51.202;8.698;2022-11-15T16:12:52;6.55;;;4.60;;
4812;SDS011;2420;51.202;8.698;2022-11-15T16:15:19;8.27;;;4.63;;
4812;SDS011;2420;51.202;8.698;2022-11-15T16:17:50;6.90;;;5.30;;
4812;SDS011;2420;51.202;8.698;2022-11-15T16:23:02;9.45;;;5.60;;
4812;SDS011;2420;51.202;8.698;2022-11-15T16:25:29;7.78;;;5.18;;
4812;SDS011;2420;51.202;8.698;2022-11-15T16:27:57;7.32;;;4.90;;
4812;SDS011;2420;51.202;8.698;2022-11-15T16:30:23;8.95;;;5.43;;
4812;SDS011;2420;51.202;8.698;2022-11-15T16:32:48;6.38;;;4.70;;
4812;SDS011;2420;51.202;8.698;2022-11-15T16:35:15;8.27;;;5.35;;
4812;SDS011;2420;51.202;8.698;2022-11-15T16:37:41;7.32;;;5.30;;
4812;SDS011;2420;51.202;8.698;2022-11-15T16:42:47;6.30;;;4.90;;
4812;SDS011;2420;51.202;8.698;2022-11-15T16:45:12;7.82;;;5.10;;
4812;SDS011;2420;51.202;8.698;2022-11-15T16:47:38;8.43;;;5.63;;
4812;SDS011;2420;51.202;8.698;2022-11-15T16:50:04;6.55;;;5.03;;
4812;SDS011;2420;51.202;8.698;2022-11-15T16:52:30;7.43;;;5.22;;
4812;SDS011;2420;51.202;8.698;2022-11-15T16:54:56;7.93;;;5.50;;
4812;SDS011;2420;51.202;8.698;2022-11-15T16:57:21;8.20;;;5.25;;
4812;SDS011;2420;51.202;8.698;2022-11-15T16:59:46;10.65;;;6.32;;
4812;SDS011;2420;51.202;8.698;2022-11-15T17:02:12;8.13;;;5.72;;
4812;SDS011;2420;51.202;8.698;2022-11-15T17:04:38;7.65;;;5.80;;
4812;SDS011;2420;51.202;8.698;2022-11-15T17:07:03;8.60;;;5.35;;
4812;SDS011;2420;51.202;8.698;2022-11-15T17:09:29;7.70;;;5.15;;
4812;SDS011;2420;51.202;8.698;2022-11-15T17:11:54;9.50;;;5.80;;
4812;SDS011;2420;51.202;8.698;2022-11-15T17:14:20;9.60;;;5.78;;
4812;SDS011;2420;51.202;8.698;2022-11-15T17:16:46;10.00;;;7.10;;
4812;SDS011;2420;51.202;8.698;2022-11-15T17:19:13;10.15;;;6.80;;